sensor_id;sensor_type;location;lat;lon;timestamp;temperature;humidity
3940;DHT22;1984;48.312;9.244;2022-08-21T00:01:43;13.20;99.90
3940;DHT22;1984;48.312;9.244;2022-08-21T00:04:09;13.20;99.90
3940;DHT22;1984;48.312;9.244;2022-08-21T00:06:36;13.10;99.90
3940;DHT22;1984;48.312;9.244;2022-08-21T00:09:04;13.00;99.90
3940;DHT22;1984;48.312;9.244;2022-08-21T00:11:30;13.00;99.90
3940;DHT22;1984;48.312;9.244;2022-08-21T00:13:56;13.00;99.90
3940;DHT22;1984;48.312;9.244;2022-08-21T00:16:22;12.90;99.90
3940;DHT22;1984;48.312;9.244;2022-08-21T00:18:48;12.90;99.90
3940;DHT22;1984;48.312;9.244;2022-08-21T00:21:13;12.90;99.90
3940;DHT22;1984;48.312;9.244;2022-08-21T00:23:39;12.80;99.90
3940;DHT22;1984;48.312;9.244;2022-08-21T00:26:06;12.80;99.90
3940;DHT22;1984;48.312;9.244;2022-08-21T00:28:32;12.70;99.90
3940;DHT22;1984;48.312;9.244;2022-08-21T00:30:58;12.70;99.90
3940;DHT22;1984;48.312;9.244;2022-08-21T00:33:25;12.70;99.90
3940;DHT22;1984;48.312;9.244;2022-08-21T00:35:51;12.70;99.90
3940;DHT22;1984;48.312;9.244;2022-08-21T00:38:17;12.70;99.90
3940;DHT22;1984;48.312;9.244;2022-08-21T00:43:10;12.70;99.90
3940;DHT22;1984;48.312;9.244;2022-08-21T00:45:36;12.70;99.90
3940;DHT22;1984;48.312;9.244;2022-08-21T00:48:01;12.50;99.90
3940;DHT22;1984;48.312;9.244;2022-08-21T00:50:31;12.40;99.90
3940;DHT22;1984;48.312;9.244;2022-08-21T00:52:58;12.30;99.90
3940;DHT22;1984;48.312;9.244;2022-08-21T00:55:25;12.30;99.90
3940;DHT22;1984;48.312;9.244;2022-08-21T00:57:52;12.20;99.90
3940;DHT22;1984;48.312;9.244;2022-08-21T01:00:23;12.30;99.90
3940;DHT22;1984;48.312;9.244;2022-08-21T01:02:49;12.30;99.90
3940;DHT22;1984;48.312;9.244;2022-08-21T01:05:15;12.30;99.90
3940;DHT22;1984;48.312;9.244;2022-08-21T01:07:42;12.20;99.90
3940;DHT22;1984;48.312;9.244;2022-08-21T01:10:09;12.20;99.90
3940;DHT22;1984;48.312;9.244;2022-08-21T01:12:35;12.20;99.90
3940;DHT22;1984;48.312;9.244;2022-08-21T01:15:04;12.20;99.90
3940;DHT22;1984;48.312;9.244;2022-08-21T01:17:30;12.20;99.90
3940;DHT22;1984;48.312;9.244;2022-08-21T01:19:58;12.20;99.90
3940;DHT22;1984;48.312;9.244;2022-08-21T01:22:24;12.20;99.90
3940;DHT22;1984;48.312;9.244;2022-08-21T01:24:50;12.20;99.90
3940;DHT22;1984;48.312;9.244;2022-08-21T01:27:15;12.20;99.90
3940;DHT22;1984;48.312;9.244;2022-08-21T01:29:59;12.10;99.90
3940;DHT22;1984;48.312;9.244;2022-08-21T01:32:26;12.10;99.90
3940;DHT22;1984;48.312;9.244;2022-08-21T01:34:52;12.10;99.90
3940;DHT22;1984;48.312;9.244;2022-08-21T01:37:19;12.00;99.90
3940;DHT22;1984;48.312;9.244;2022-08-21T01:39:45;11.90;99.90
3940;DHT22;1984;48.312;9.244;2022-08-21T01:42:11;11.90;99.90
3940;DHT22;1984;48.312;9.244;2022-08-21T01:44:37;11.90;99.90
3940;DHT22;1984;48.312;9.244;2022-08-21T01:47:06;11.90;99.90
3940;DHT22;1984;48.312;9.244;2022-08-21T01:49:33;11.80;99.90
3940;DHT22;1984;48.312;9.244;2022-08-21T01:51:59;11.90;99.90
3940;DHT22;1984;48.312;9.244;2022-08-21T01:54:25;11.90;99.90
3940;DHT22;1984;48.312;9.244;2022-08-21T01:56:52;11.90;99.90
3940;DHT22;1984;48.312;9.244;2022-08-21T01:59:18;11.90;99.90
3940;DHT22;1984;48.312;9.244;2022-08-21T02:01:44;11.80;99.90
3940;DHT22;1984;48.312;9.244;2022-08-21T02:04:11;11.70;99.90
3940;DHT22;1984;48.312;9.244;2022-08-21T02:06:37;11.70;99.90
3940;DHT22;1984;48.312;9.244;2022-08-21T02:09:04;11.60;99.90
3940;DHT22;1984;48.312;9.244;2022-08-21T02:11:31;11.60;99.90
3940;DHT22;1984;48.312;9.244;2022-08-21T02:13:57;11.60;99.90
3940;DHT22;1984;48.312;9.244;2022-08-21T02:16:22;11.50;99.90
3940;DHT22;1984;48.312;9.244;2022-08-21T02:18:48;11.50;99.90
3940;DHT22;1984;48.312;9.244;2022-08-21T02:21:13;11.40;99.90
3940;DHT22;1984;48.312;9.244;2022-08-21T02:23:39;11.40;99.90
3940;DHT22;1984;48.312;9.244;2022-08-21T02:26:06;11.40;99.90
3940;DHT22;1984;48.312;9.244;2022-08-21T02:28:32;11.40;99.90
3940;DHT22;1984;48.312;9.244;2022-08-21T02:30:58;11.40;99.90
3940;DHT22;1984;48.312;9.244;2022-08-21T02:33:27;11.40;99.90
3940;DHT22;1984;48.312;9.244;2022-08-21T02:35:53;11.40;99.90
3940;DHT22;1984;48.312;9.244;2022-08-21T02:38:26;11.40;99.90
3940;DHT22;1984;48.312;9.244;2022-08-21T02:40:53;11.20;99.90
3940;DHT22;1984;48.312;9.244;2022-08-21T02:43:20;11.10;99.90
3940;DHT22;1984;48.312;9.244;2022-08-21T02:45:49;11.10;99.90
3940;DHT22;1984;48.312;9.244;2022-08-21T02:48:20;11.20;99.90
3940;DHT22;1984;48.312;9.244;2022-08-21T02:51:15;11.20;99.90
3940;DHT22;1984;48.312;9.244;2022-08-21T02:53:43;11.10;99.90
3940;DHT22;1984;48.312;9.244;2022-08-21T02:56:11;11.10;99.90
3940;DHT22;1984;48.312;9.244;2022-08-21T02:58:41;11.10;99.90
3940;DHT22;1984;48.312;9.244;2022-08-21T03:01:07;11.10;99.90
3940;DHT22;1984;48.312;9.244;2022-08-21T03:03:36;11.10;99.90
3940;DHT22;1984;48.312;9.244;2022-08-21T03:06:03;11.10;99.90
3940;DHT22;1984;48.312;9.244;2022-08-21T03:08:29;11.10;99.90
3940;DHT22;1984;48.312;9.244;2022-08-21T03:10:55;11.00;99.90
3940;DHT22;1984;48.312;9.244;2022-08-21T03:13:21;11.00;99.90
3940;DHT22;1984;48.312;9.244;2022-08-21T03:15:49;11.00;99.90
3940;DHT22;1984;48.312;9.244;2022-08-21T03:18:15;11.00;99.90
3940;DHT22;1984;48.312;9.244;2022-08-21T03:20:42;11.00;99.90
3940;DHT22;1984;48.312;9.244;2022-08-21T03:23:08;11.00;99.90
3940;DHT22;1984;48.312;9.244;2022-08-21T03:25:34;11.00;99.90
3940;DHT22;1984;48.312;9.244;2022-08-21T03:28:01;11.10;99.90
3940;DHT22;1984;48.312;9.244;2022-08-21T03:30:28;11.00;99.90
3940;DHT22;1984;48.312;9.244;2022-08-21T03:32:53;11.00;99.90
3940;DHT22;1984;48.312;9.244;2022-08-21T03:35:19;11.00;99.90
3940;DHT22;1984;48.312;9.244;2022-08-21T03:37:46;10.90;99.90
3940;DHT22;1984;48.312;9.244;2022-08-21T03:40:14;10.90;99.90
3940;DHT22;1984;48.312;9.244;2022-08-21T03:42:41;10.90;99.90
3940;DHT22;1984;48.312;9.244;2022-08-21T03:45:07;10.90;99.90
3940;DHT22;1984;48.312;9.244;2022-08-21T03:47:32;10.80;99.90
3940;DHT22;1984;48.312;9.244;2022-08-21T03:49:58;10.80;99.90
3940;DHT22;1984;48.312;9.244;2022-08-21T03:52:24;10.80;99.90
3940;DHT22;1984;48.312;9.244;2022-08-21T03:54:50;10.80;99.90
3940;DHT22;1984;48.312;9.244;2022-08-21T03:57:16;10.70;99.90
3940;DHT22;1984;48.312;9.244;2022-08-21T03:59:42;10.60;99.90
3940;DHT22;1984;48.312;9.244;2022-08-21T04:02:10;10.60;99.90
3940;DHT22;1984;48.312;9.244;2022-08-21T04:04:36;10.60;99.90
3940;DHT22;1984;48.312;9.244;2022-08-21T04:07:02;10.60;99.90
3940;DHT22;1984;48.312;9.244;2022-08-21T04:09:28;10.60;99.90
3940;DHT22;1984;48.312;9.244;2022-08-21T04:11:55;10.50;99.90
3940;DHT22;1984;48.312;9.244;2022-08-21T04:14:21;10.40;99.90
3940;DHT22;1984;48.312;9.244;2022-08-21T04:16:47;10.30;99.90
3940;DHT22;1984;48.312;9.244;2022-08-21T04:19:13;10.30;99.90
3940;DHT22;1984;48.312;9.244;2022-08-21T04:21:40;10.30;99.90
3940;DHT22;1984;48.312;9.244;2022-08-21T04:24:07;10.30;99.90
3940;DHT22;1984;48.312;9.244;2022-08-21T04:26:34;10.30;99.90
3940;DHT22;1984;48.312;9.244;2022-08-21T04:29:00;10.30;99.90
3940;DHT22;1984;48.312;9.244;2022-08-21T04:31:26;10.40;99.90
3940;DHT22;1984;48.312;9.244;2022-08-21T04:33:52;10.40;99.90
3940;DHT22;1984;48.312;9.244;2022-08-21T04:36:17;10.30;99.90
3940;DHT22;1984;48.312;9.244;2022-08-21T04:38:43;10.30;99.90
3940;DHT22;1984;48.312;9.244;2022-08-21T04:41:09;10.30;99.90
3940;DHT22;1984;48.312;9.244;2022-08-21T04:43:35;10.40;99.90
3940;DHT22;1984;48.312;9.244;2022-08-21T04:46:00;10.40;99.90
3940;DHT22;1984;48.312;9.244;2022-08-21T04:48:27;10.40;99.90
3940;DHT22;1984;48.312;9.244;2022-08-21T04:51:12;10.30;99.90
3940;DHT22;1984;48.312;9.244;2022-08-21T04:53:48;10.20;99.90
3940;DHT22;1984;48.312;9.244;2022-08-21T04:56:19;10.10;99.90
3940;DHT22;1984;48.312;9.244;2022-08-21T04:58:46;10.10;99.90
3940;DHT22;1984;48.312;9.244;2022-08-21T05:01:17;10.10;99.90
3940;DHT22;1984;48.312;9.244;2022-08-21T05:03:44;10.10;99.90
3940;DHT22;1984;48.312;9.244;2022-08-21T05:06:12;10.20;99.90
3940;DHT22;1984;48.312;9.244;2022-08-21T05:08:39;10.20;99.90
3940;DHT22;1984;48.312;9.244;2022-08-21T05:11:06;10.30;99.90
3940;DHT22;1984;48.312;9.244;2022-08-21T05:13:32;10.30;99.90
3940;DHT22;1984;48.312;9.244;2022-08-21T05:15:57;10.20;99.90
3940;DHT22;1984;48.312;9.244;2022-08-21T05:18:24;10.30;99.90
3940;DHT22;1984;48.312;9.244;2022-08-21T05:20:50;10.30;99.90
3940;DHT22;1984;48.312;9.244;2022-08-21T05:23:16;10.30;99.90
3940;DHT22;1984;48.312;9.244;2022-08-21T05:25:41;10.30;99.90
3940;DHT22;1984;48.312;9.244;2022-08-21T05:28:08;10.30;99.90
3940;DHT22;1984;48.312;9.244;2022-08-21T05:30:35;10.40;99.90
3940;DHT22;1984;48.312;9.244;2022-08-21T05:33:02;10.40;99.90
3940;DHT22;1984;48.312;9.244;2022-08-21T05:35:29;10.60;99.90
3940;DHT22;1984;48.312;9.244;2022-08-21T05:37:55;10.60;99.90
3940;DHT22;1984;48.312;9.244;2022-08-21T05:40:21;10.60;99.90
3940;DHT22;1984;48.312;9.244;2022-08-21T05:42:46;10.60;99.90
3940;DHT22;1984;48.312;9.244;2022-08-21T05:45:12;10.70;99.90
3940;DHT22;1984;48.312;9.244;2022-08-21T05:47:38;10.80;99.90
3940;DHT22;1984;48.312;9.244;2022-08-21T05:50:05;10.80;99.90
3940;DHT22;1984;48.312;9.244;2022-08-21T05:52:31;10.80;99.90
3940;DHT22;1984;48.312;9.244;2022-08-21T05:54:57;10.80;99.90
3940;DHT22;1984;48.312;9.244;2022-08-21T05:57:22;10.90;99.90
3940;DHT22;1984;48.312;9.244;2022-08-21T05:59:49;11.00;99.90
3940;DHT22;1984;48.312;9.244;2022-08-21T06:02:17;11.10;99.90
3940;DHT22;1984;48.312;9.244;2022-08-21T06:04:42;11.20;99.90
3940;DHT22;1984;48.312;9.244;2022-08-21T06:07:08;11.30;99.90
3940;DHT22;1984;48.312;9.244;2022-08-21T06:09:33;11.40;99.90
3940;DHT22;1984;48.312;9.244;2022-08-21T06:12:04;11.40;99.90
3940;DHT22;1984;48.312;9.244;2022-08-21T06:14:30;11.50;99.90
3940;DHT22;1984;48.312;9.244;2022-08-21T06:17:05;11.70;99.90
3940;DHT22;1984;48.312;9.244;2022-08-21T06:19:31;11.90;99.90
3940;DHT22;1984;48.312;9.244;2022-08-21T06:21:57;12.20;99.90
3940;DHT22;1984;48.312;9.244;2022-08-21T06:24:23;12.40;99.90
3940;DHT22;1984;48.312;9.244;2022-08-21T06:26:48;12.60;99.90
3940;DHT22;1984;48.312;9.244;2022-08-21T06:29:14;12.90;99.90
3940;DHT22;1984;48.312;9.244;2022-08-21T06:31:42;13.00;99.90
3940;DHT22;1984;48.312;9.244;2022-08-21T06:34:08;13.20;99.90
3940;DHT22;1984;48.312;9.244;2022-08-21T06:36:34;13.40;99.90
3940;DHT22;1984;48.312;9.244;2022-08-21T06:38:59;13.60;99.90
3940;DHT22;1984;48.312;9.244;2022-08-21T06:41:25;13.80;99.90
3940;DHT22;1984;48.312;9.244;2022-08-21T06:43:52;14.10;99.90
3940;DHT22;1984;48.312;9.244;2022-08-21T06:46:18;14.20;99.90
3940;DHT22;1984;48.312;9.244;2022-08-21T06:48:43;14.40;99.90
3940;DHT22;1984;48.312;9.244;2022-08-21T06:51:09;14.80;99.90
3940;DHT22;1984;48.312;9.244;2022-08-21T06:53:34;15.10;99.90
3940;DHT22;1984;48.312;9.244;2022-08-21T06:56:00;15.50;99.90
3940;DHT22;1984;48.312;9.244;2022-08-21T06:58:25;16.00;99.90
3940;DHT22;1984;48.312;9.244;2022-08-21T07:00:51;16.60;99.90
3940;DHT22;1984;48.312;9.244;2022-08-21T07:03:30;17.40;99.90
3940;DHT22;1984;48.312;9.244;2022-08-21T07:05:56;18.40;99.90
3940;DHT22;1984;48.312;9.244;2022-08-21T07:08:26;19.20;99.90
3940;DHT22;1984;48.312;9.244;2022-08-21T07:10:53;20.00;99.90
3940;DHT22;1984;48.312;9.244;2022-08-21T07:13:19;20.80;99.90
3940;DHT22;1984;48.312;9.244;2022-08-21T07:15:45;21.70;99.90
3940;DHT22;1984;48.312;9.244;2022-08-21T07:18:11;22.40;99.90
3940;DHT22;1984;48.312;9.244;2022-08-21T07:20:37;23.10;99.90
3940;DHT22;1984;48.312;9.244;2022-08-21T07:23:05;23.80;99.90
3940;DHT22;1984;48.312;9.244;2022-08-21T07:25:31;24.70;99.90
3940;DHT22;1984;48.312;9.244;2022-08-21T07:27:57;25.50;99.90
3940;DHT22;1984;48.312;9.244;2022-08-21T07:30:23;26.10;99.90
3940;DHT22;1984;48.312;9.244;2022-08-21T07:32:50;26.50;99.90
3940;DHT22;1984;48.312;9.244;2022-08-21T07:35:16;27.10;99.90
3940;DHT22;1984;48.312;9.244;2022-08-21T07:37:42;27.70;99.90
3940;DHT22;1984;48.312;9.244;2022-08-21T07:40:08;28.20;99.30
3940;DHT22;1984;48.312;9.244;2022-08-21T07:42:34;29.00;97.10
3940;DHT22;1984;48.312;9.244;2022-08-21T07:45:04;29.30;95.90
3940;DHT22;1984;48.312;9.244;2022-08-21T07:47:30;29.70;94.50
3940;DHT22;1984;48.312;9.244;2022-08-21T07:49:56;30.30;93.20
3940;DHT22;1984;48.312;9.244;2022-08-21T07:52:21;31.00;89.70
3940;DHT22;1984;48.312;9.244;2022-08-21T07:54:46;31.60;88.30
3940;DHT22;1984;48.312;9.244;2022-08-21T07:57:12;32.10;79.70
3940;DHT22;1984;48.312;9.244;2022-08-21T07:59:38;32.40;81.80
3940;DHT22;1984;48.312;9.244;2022-08-21T08:02:03;32.80;79.50
3940;DHT22;1984;48.312;9.244;2022-08-21T08:04:29;33.10;76.00
3940;DHT22;1984;48.312;9.244;2022-08-21T08:06:54;33.10;73.90
3940;DHT22;1984;48.312;9.244;2022-08-21T08:09:20;33.20;72.20
3940;DHT22;1984;48.312;9.244;2022-08-21T08:11:46;33.60;71.70
3940;DHT22;1984;48.312;9.244;2022-08-21T08:14:11;34.00;69.00
3940;DHT22;1984;48.312;9.244;2022-08-21T08:16:37;34.20;68.00
3940;DHT22;1984;48.312;9.244;2022-08-21T08:19:03;34.10;66.20
3940;DHT22;1984;48.312;9.244;2022-08-21T08:21:28;34.30;65.30
3940;DHT22;1984;48.312;9.244;2022-08-21T08:23:54;34.50;63.80
3940;DHT22;1984;48.312;9.244;2022-08-21T08:26:20;34.80;64.90
3940;DHT22;1984;48.312;9.244;2022-08-21T08:28:45;35.30;63.50
3940;DHT22;1984;48.312;9.244;2022-08-21T08:31:13;35.60;62.30
3940;DHT22;1984;48.312;9.244;2022-08-21T08:33:39;35.90;61.20
3940;DHT22;1984;48.312;9.244;2022-08-21T08:36:05;34.90;60.30
3940;DHT22;1984;48.312;9.244;2022-08-21T08:38:37;32.80;59.50
3940;DHT22;1984;48.312;9.244;2022-08-21T08:41:17;30.50;64.00
3940;DHT22;1984;48.312;9.244;2022-08-21T08:43:56;28.60;67.90
3940;DHT22;1984;48.312;9.244;2022-08-21T08:46:31;27.20;73.50
3940;DHT22;1984;48.312;9.244;2022-08-21T08:49:06;27.60;75.90
3940;DHT22;1984;48.312;9.244;2022-08-21T08:54:10;31.10;68.50
3940;DHT22;1984;48.312;9.244;2022-08-21T08:56:37;32.60;65.00
3940;DHT22;1984;48.312;9.244;2022-08-21T08:59:18;33.40;62.40
3940;DHT22;1984;48.312;9.244;2022-08-21T09:01:46;34.00;64.00
3940;DHT22;1984;48.312;9.244;2022-08-21T09:04:12;34.80;63.20
3940;DHT22;1984;48.312;9.244;2022-08-21T09:12:09;36.40;56.70
3940;DHT22;1984;48.312;9.244;2022-08-21T09:20:52;35.20;57.40
3940;DHT22;1984;48.312;9.244;2022-08-21T09:26:18;36.10;56.90
3940;DHT22;1984;48.312;9.244;2022-08-21T09:28:44;36.00;55.70
3940;DHT22;1984;48.312;9.244;2022-08-21T09:31:23;35.90;57.00
3940;DHT22;1984;48.312;9.244;2022-08-21T09:33:48;34.60;56.00
3940;DHT22;1984;48.312;9.244;2022-08-21T09:36:41;32.60;58.00
3940;DHT22;1984;48.312;9.244;2022-08-21T09:39:10;30.50;60.90
3940;DHT22;1984;48.312;9.244;2022-08-21T09:41:36;28.90;65.20
3940;DHT22;1984;48.312;9.244;2022-08-21T09:44:04;27.80;69.80
3940;DHT22;1984;48.312;9.244;2022-08-21T09:46:31;28.10;73.50
3940;DHT22;1984;48.312;9.244;2022-08-21T09:49:01;29.90;66.70
3940;DHT22;1984;48.312;9.244;2022-08-21T09:51:31;30.70;66.10
3940;DHT22;1984;48.312;9.244;2022-08-21T09:56:38;30.70;63.00
3940;DHT22;1984;48.312;9.244;2022-08-21T09:59:32;29.70;64.30
3940;DHT22;1984;48.312;9.244;2022-08-21T10:02:00;29.40;63.70
3940;DHT22;1984;48.312;9.244;2022-08-21T10:04:35;29.00;65.50
3940;DHT22;1984;48.312;9.244;2022-08-21T10:07:14;29.20;70.00
3940;DHT22;1984;48.312;9.244;2022-08-21T10:09:41;30.60;67.00
3940;DHT22;1984;48.312;9.244;2022-08-21T10:12:33;31.50;62.60
3940;DHT22;1984;48.312;9.244;2022-08-21T10:20:45;35.70;58.30
3940;DHT22;1984;48.312;9.244;2022-08-21T10:23:40;36.40;53.80
3940;DHT22;1984;48.312;9.244;2022-08-21T10:26:48;36.90;54.10
3940;DHT22;1984;48.312;9.244;2022-08-21T10:35:23;35.70;54.10
3940;DHT22;1984;48.312;9.244;2022-08-21T10:38:23;35.30;53.90
3940;DHT22;1984;48.312;9.244;2022-08-21T10:47:12;36.10;51.00
3940;DHT22;1984;48.312;9.244;2022-08-21T10:49:39;35.30;52.80
3940;DHT22;1984;48.312;9.244;2022-08-21T10:52:28;35.70;54.70
3940;DHT22;1984;48.312;9.244;2022-08-21T10:55:10;36.20;54.20
3940;DHT22;1984;48.312;9.244;2022-08-21T10:58:26;36.10;51.70
3940;DHT22;1984;48.312;9.244;2022-08-21T11:00:43;36.20;52.40
3940;DHT22;1984;48.312;9.244;2022-08-21T11:03:15;36.00;52.00
3940;DHT22;1984;48.312;9.244;2022-08-21T11:05:50;35.60;51.40
3940;DHT22;1984;48.312;9.244;2022-08-21T11:08:24;35.00;51.70
3940;DHT22;1984;48.312;9.244;2022-08-21T11:11:07;33.40;54.40
3940;DHT22;1984;48.312;9.244;2022-08-21T11:13:47;31.30;57.20
3940;DHT22;1984;48.312;9.244;2022-08-21T11:22:12;29.90;63.30
3940;DHT22;1984;48.312;9.244;2022-08-21T11:24:44;29.80;58.80
3940;DHT22;1984;48.312;9.244;2022-08-21T11:30:06;28.80;63.20
3940;DHT22;1984;48.312;9.244;2022-08-21T11:32:57;28.60;66.10
3940;DHT22;1984;48.312;9.244;2022-08-21T11:35:55;28.60;64.50
3940;DHT22;1984;48.312;9.244;2022-08-21T11:38:28;28.80;61.10
3940;DHT22;1984;48.312;9.244;2022-08-21T11:44:09;27.90;62.20
3940;DHT22;1984;48.312;9.244;2022-08-21T11:51:53;27.40;63.50
3940;DHT22;1984;48.312;9.244;2022-08-21T11:54:30;27.20;63.70
3940;DHT22;1984;48.312;9.244;2022-08-21T11:57:15;26.80;65.70
3940;DHT22;1984;48.312;9.244;2022-08-21T12:02:23;25.90;68.60
3940;DHT22;1984;48.312;9.244;2022-08-21T12:04:54;25.80;68.80
3940;DHT22;1984;48.312;9.244;2022-08-21T12:07:44;26.20;69.80
3940;DHT22;1984;48.312;9.244;2022-08-21T12:10:16;26.20;68.30
3940;DHT22;1984;48.312;9.244;2022-08-21T12:12:44;26.20;68.60
3940;DHT22;1984;48.312;9.244;2022-08-21T12:20:44;24.90;70.80
3940;DHT22;1984;48.312;9.244;2022-08-21T12:25:42;24.30;74.10
3940;DHT22;1984;48.312;9.244;2022-08-21T12:28:11;24.30;73.60
3940;DHT22;1984;48.312;9.244;2022-08-21T12:30:41;24.40;74.30
3940;DHT22;1984;48.312;9.244;2022-08-21T12:33:39;24.40;72.60
3940;DHT22;1984;48.312;9.244;2022-08-21T12:36:15;24.40;72.30
3940;DHT22;1984;48.312;9.244;2022-08-21T12:38:50;24.50;71.40
3940;DHT22;1984;48.312;9.244;2022-08-21T12:41:20;24.60;73.00
3940;DHT22;1984;48.312;9.244;2022-08-21T12:43:53;24.80;72.10
3940;DHT22;1984;48.312;9.244;2022-08-21T12:46:26;25.00;75.20
3940;DHT22;1984;48.312;9.244;2022-08-21T12:48:58;25.20;70.20
3940;DHT22;1984;48.312;9.244;2022-08-21T12:51:31;25.20;71.20
3940;DHT22;1984;48.312;9.244;2022-08-21T12:53:59;25.20;72.50
3940;DHT22;1984;48.312;9.244;2022-08-21T12:56:30;25.30;73.20
3940;DHT22;1984;48.312;9.244;2022-08-21T12:59:07;25.40;71.60
3940;DHT22;1984;48.312;9.244;2022-08-21T13:01:36;25.50;75.70
3940;DHT22;1984;48.312;9.244;2022-08-21T13:04:11;25.60;71.10
3940;DHT22;1984;48.312;9.244;2022-08-21T13:06:40;25.90;74.00
3940;DHT22;1984;48.312;9.244;2022-08-21T13:09:12;26.00;68.40
3940;DHT22;1984;48.312;9.244;2022-08-21T13:11:39;26.20;72.60
3940;DHT22;1984;48.312;9.244;2022-08-21T13:14:08;26.20;68.20
3940;DHT22;1984;48.312;9.244;2022-08-21T13:16:36;25.90;68.20
3940;DHT22;1984;48.312;9.244;2022-08-21T13:19:06;25.60;69.20
3940;DHT22;1984;48.312;9.244;2022-08-21T13:21:43;25.60;68.90
3940;DHT22;1984;48.312;9.244;2022-08-21T13:26:46;25.60;71.70
3940;DHT22;1984;48.312;9.244;2022-08-21T13:29:15;25.50;65.10
3940;DHT22;1984;48.312;9.244;2022-08-21T13:31:46;25.50;69.80
3940;DHT22;1984;48.312;9.244;2022-08-21T13:34:12;25.70;69.10
3940;DHT22;1984;48.312;9.244;2022-08-21T13:36:41;25.90;69.50
3940;DHT22;1984;48.312;9.244;2022-08-21T13:39:11;25.90;65.90
3940;DHT22;1984;48.312;9.244;2022-08-21T13:41:40;25.70;66.70
3940;DHT22;1984;48.312;9.244;2022-08-21T13:44:22;25.80;68.30
3940;DHT22;1984;48.312;9.244;2022-08-21T13:46:52;26.00;70.90
3940;DHT22;1984;48.312;9.244;2022-08-21T13:49:20;26.10;69.70
3940;DHT22;1984;48.312;9.244;2022-08-21T13:51:48;26.30;68.60
3940;DHT22;1984;48.312;9.244;2022-08-21T13:54:34;26.50;66.80
3940;DHT22;1984;48.312;9.244;2022-08-21T13:57:00;26.60;65.40
3940;DHT22;1984;48.312;9.244;2022-08-21T13:59:31;26.40;68.60
3940;DHT22;1984;48.312;9.244;2022-08-21T14:02:19;26.40;69.50
3940;DHT22;1984;48.312;9.244;2022-08-21T14:04:55;26.40;68.20
3940;DHT22;1984;48.312;9.244;2022-08-21T14:07:29;26.50;68.20
3940;DHT22;1984;48.312;9.244;2022-08-21T14:10:01;26.60;68.70
3940;DHT22;1984;48.312;9.244;2022-08-21T14:12:38;26.30;66.60
3940;DHT22;1984;48.312;9.244;2022-08-21T14:15:06;26.00;68.20
3940;DHT22;1984;48.312;9.244;2022-08-21T14:17:35;26.10;70.40
3940;DHT22;1984;48.312;9.244;2022-08-21T14:20:06;26.20;66.60
3940;DHT22;1984;48.312;9.244;2022-08-21T14:22:45;26.30;67.40
3940;DHT22;1984;48.312;9.244;2022-08-21T14:30:41;26.50;67.60
3940;DHT22;1984;48.312;9.244;2022-08-21T14:33:24;26.40;68.60
3940;DHT22;1984;48.312;9.244;2022-08-21T14:35:50;26.60;70.60
3940;DHT22;1984;48.312;9.244;2022-08-21T14:38:18;26.70;69.50
3940;DHT22;1984;48.312;9.244;2022-08-21T14:40:47;26.60;68.90
3940;DHT22;1984;48.312;9.244;2022-08-21T14:43:12;26.40;70.50
3940;DHT22;1984;48.312;9.244;2022-08-21T14:45:38;26.40;71.70
3940;DHT22;1984;48.312;9.244;2022-08-21T14:48:07;26.50;72.00
3940;DHT22;1984;48.312;9.244;2022-08-21T14:50:33;26.50;73.20
3940;DHT22;1984;48.312;9.244;2022-08-21T14:52:59;26.50;71.70
3940;DHT22;1984;48.312;9.244;2022-08-21T14:55:26;26.30;73.00
3940;DHT22;1984;48.312;9.244;2022-08-21T14:57:53;26.30;72.20
3940;DHT22;1984;48.312;9.244;2022-08-21T15:00:22;26.20;72.10
3940;DHT22;1984;48.312;9.244;2022-08-21T15:02:48;26.00;72.50
3940;DHT22;1984;48.312;9.244;2022-08-21T15:05:15;25.80;73.50
3940;DHT22;1984;48.312;9.244;2022-08-21T15:07:40;25.70;73.40
3940;DHT22;1984;48.312;9.244;2022-08-21T15:10:07;25.70;74.60
3940;DHT22;1984;48.312;9.244;2022-08-21T15:12:33;25.70;74.80
3940;DHT22;1984;48.312;9.244;2022-08-21T15:14:58;25.80;74.30
3940;DHT22;1984;48.312;9.244;2022-08-21T15:17:24;25.80;73.50
3940;DHT22;1984;48.312;9.244;2022-08-21T15:19:50;25.70;73.90
3940;DHT22;1984;48.312;9.244;2022-08-21T15:22:15;25.80;73.10
3940;DHT22;1984;48.312;9.244;2022-08-21T15:24:41;25.90;73.60
3940;DHT22;1984;48.312;9.244;2022-08-21T15:27:08;25.80;71.20
3940;DHT22;1984;48.312;9.244;2022-08-21T15:29:34;25.70;71.50
3940;DHT22;1984;48.312;9.244;2022-08-21T15:32:21;25.70;74.20
3940;DHT22;1984;48.312;9.244;2022-08-21T15:34:48;25.70;72.00
3940;DHT22;1984;48.312;9.244;2022-08-21T15:37:14;25.80;72.80
3940;DHT22;1984;48.312;9.244;2022-08-21T15:39:40;25.80;71.70
3940;DHT22;1984;48.312;9.244;2022-08-21T15:42:05;25.90;71.40
3940;DHT22;1984;48.312;9.244;2022-08-21T15:44:31;25.80;72.00
3940;DHT22;1984;48.312;9.244;2022-08-21T15:46:57;25.50;72.80
3940;DHT22;1984;48.312;9.244;2022-08-21T15:49:24;25.40;73.30
3940;DHT22;1984;48.312;9.244;2022-08-21T15:51:49;25.40;73.60
3940;DHT22;1984;48.312;9.244;2022-08-21T15:54:15;25.30;75.10
3940;DHT22;1984;48.312;9.244;2022-08-21T15:56:43;25.20;76.60
3940;DHT22;1984;48.312;9.244;2022-08-21T15:59:18;25.10;76.80
3940;DHT22;1984;48.312;9.244;2022-08-21T16:01:44;25.00;74.70
3940;DHT22;1984;48.312;9.244;2022-08-21T16:04:23;24.90;74.90
3940;DHT22;1984;48.312;9.244;2022-08-21T16:06:49;25.00;77.10
3940;DHT22;1984;48.312;9.244;2022-08-21T16:09:14;25.00;74.90
3940;DHT22;1984;48.312;9.244;2022-08-21T16:11:41;25.00;75.90
3940;DHT22;1984;48.312;9.244;2022-08-21T16:14:07;25.00;74.20
3940;DHT22;1984;48.312;9.244;2022-08-21T16:16:34;25.00;77.50
3940;DHT22;1984;48.312;9.244;2022-08-21T16:19:02;25.00;77.50
3940;DHT22;1984;48.312;9.244;2022-08-21T16:21:28;25.00;76.60
3940;DHT22;1984;48.312;9.244;2022-08-21T16:23:54;25.00;77.50
3940;DHT22;1984;48.312;9.244;2022-08-21T16:26:19;24.90;76.70
3940;DHT22;1984;48.312;9.244;2022-08-21T16:28:45;24.80;75.00
3940;DHT22;1984;48.312;9.244;2022-08-21T16:31:13;24.70;77.00
3940;DHT22;1984;48.312;9.244;2022-08-21T16:33:45;24.60;76.60
3940;DHT22;1984;48.312;9.244;2022-08-21T16:36:14;24.50;78.00
3940;DHT22;1984;48.312;9.244;2022-08-21T16:38:40;24.30;77.50
3940;DHT22;1984;48.312;9.244;2022-08-21T16:41:10;24.10;77.20
3940;DHT22;1984;48.312;9.244;2022-08-21T16:43:37;24.00;77.70
3940;DHT22;1984;48.312;9.244;2022-08-21T16:46:04;24.00;80.50
3940;DHT22;1984;48.312;9.244;2022-08-21T16:48:30;23.80;80.30
3940;DHT22;1984;48.312;9.244;2022-08-21T16:50:56;23.80;80.80
3940;DHT22;1984;48.312;9.244;2022-08-21T16:53:22;23.70;80.50
3940;DHT22;1984;48.312;9.244;2022-08-21T16:55:49;23.60;81.70
3940;DHT22;1984;48.312;9.244;2022-08-21T16:58:22;23.50;82.10
3940;DHT22;1984;48.312;9.244;2022-08-21T17:00:49;23.40;83.00
3940;DHT22;1984;48.312;9.244;2022-08-21T17:03:17;23.30;82.50
3940;DHT22;1984;48.312;9.244;2022-08-21T17:05:45;23.10;83.40
3940;DHT22;1984;48.312;9.244;2022-08-21T17:08:11;23.00;83.40
3940;DHT22;1984;48.312;9.244;2022-08-21T17:10:37;22.90;83.80
3940;DHT22;1984;48.312;9.244;2022-08-21T17:13:03;22.80;83.90
3940;DHT22;1984;48.312;9.244;2022-08-21T17:15:32;22.70;85.90
3940;DHT22;1984;48.312;9.244;2022-08-21T17:17:59;22.60;85.80
3940;DHT22;1984;48.312;9.244;2022-08-21T17:20:25;22.50;85.90
3940;DHT22;1984;48.312;9.244;2022-08-21T17:22:51;22.50;87.00
3940;DHT22;1984;48.312;9.244;2022-08-21T17:25:17;22.40;86.40
3940;DHT22;1984;48.312;9.244;2022-08-21T17:27:43;22.40;86.50
3940;DHT22;1984;48.312;9.244;2022-08-21T17:30:11;22.30;87.60